sensor_id;sensor_type;location;lat;lon;timestamp;P1;durP1;ratioP1;P2;durP2;ratioP2
53411;SDS011;39307;52.870;13.660;2023-08-21T00:01:47;14.95;;;10.88;;
53411;SDS011;39307;52.870;13.660;2023-08-21T00:04:13;16.25;;;11.15;;
53411;SDS011;39307;52.870;13.660;2023-08-21T00:06:39;15.20;;;10.55;;
53411;SDS011;39307;52.870;13.660;2023-08-21T00:09:06;16.08;;;11.20;;
53411;SDS011;39307;52.870;13.660;2023-08-21T00:11:32;16.48;;;10.95;;
53411;SDS011;39307;52.870;13.660;2023-08-21T00:13:58;19.08;;;10.40;;
53411;SDS011;39307;52.870;13.660;2023-08-21T00:16:24;17.08;;;11.63;;
53411;SDS011;39307;52.870;13.660;2023-08-21T00:18:51;18.77;;;11.65;;
53411;SDS011;39307;52.870;13.660;2023-08-21T00:21:17;16.95;;;11.02;;
53411;SDS011;39307;52.870;13.660;2023-08-21T00:23:44;17.58;;;11.98;;
53411;SDS011;39307;52.870;13.660;2023-08-21T00:26:10;15.88;;;11.23;;
53411;SDS011;39307;52.870;13.660;2023-08-21T00:28:37;16.25;;;10.93;;
53411;SDS011;39307;52.870;13.660;2023-08-21T00:31:03;17.63;;;11.20;;
53411;SDS011;39307;52.870;13.660;2023-08-21T00:33:30;17.58;;;11.43;;
53411;SDS011;39307;52.870;13.660;2023-08-21T00:35:57;16.17;;;11.00;;
53411;SDS011;39307;52.870;13.660;2023-08-21T00:38:23;15.60;;;10.93;;
53411;SDS011;39307;52.870;13.660;2023-08-21T00:40:50;18.55;;;11.95;;
53411;SDS011;39307;52.870;13.660;2023-08-21T00:43:16;17.45;;;11.18;;
53411;SDS011;39307;52.870;13.660;2023-08-21T00:45:44;17.48;;;11.93;;
53411;SDS011;39307;52.870;13.660;2023-08-21T00:48:12;18.05;;;11.80;;
53411;SDS011;39307;52.870;13.660;2023-08-21T00:50:39;19.90;;;12.10;;
53411;SDS011;39307;52.870;13.660;2023-08-21T00:53:06;17.87;;;11.67;;
53411;SDS011;39307;52.870;13.660;2023-08-21T00:55:32;19.07;;;11.97;;
53411;SDS011;39307;52.870;13.660;2023-08-21T00:57:59;18.40;;;12.10;;
53411;SDS011;39307;52.870;13.660;2023-08-21T01:00:28;17.47;;;11.97;;
53411;SDS011;39307;52.870;13.660;2023-08-21T01:02:55;16.75;;;11.50;;
53411;SDS011;39307;52.870;13.660;2023-08-21T01:05:22;18.53;;;12.53;;
53411;SDS011;39307;52.870;13.660;2023-08-21T01:07:59;19.10;;;12.60;;
53411;SDS011;39307;52.870;13.660;2023-08-21T01:10:46;17.45;;;12.20;;
53411;SDS011;39307;52.870;13.660;2023-08-21T01:13:25;17.80;;;12.40;;
53411;SDS011;39307;52.870;13.660;2023-08-21T01:15:53;17.90;;;11.63;;
53411;SDS011;39307;52.870;13.660;2023-08-21T01:18:21;18.17;;;12.55;;
53411;SDS011;39307;52.870;13.660;2023-08-21T01:20:48;16.80;;;12.32;;
53411;SDS011;39307;52.870;13.660;2023-08-21T01:23:26;20.75;;;12.10;;
53411;SDS011;39307;52.870;13.660;2023-08-21T01:25:54;18.38;;;12.70;;
53411;SDS011;39307;52.870;13.660;2023-08-21T01:28:20;16.52;;;12.48;;
53411;SDS011;39307;52.870;13.660;2023-08-21T01:30:47;20.42;;;13.40;;
53411;SDS011;39307;52.870;13.660;2023-08-21T01:33:16;18.13;;;12.13;;
53411;SDS011;39307;52.870;13.660;2023-08-21T01:35:43;17.05;;;12.13;;
53411;SDS011;39307;52.870;13.660;2023-08-21T01:38:10;15.90;;;11.07;;
53411;SDS011;39307;52.870;13.660;2023-08-21T01:40:36;15.98;;;11.50;;
53411;SDS011;39307;52.870;13.660;2023-08-21T01:43:03;16.35;;;11.20;;
53411;SDS011;39307;52.870;13.660;2023-08-21T01:45:29;15.38;;;10.73;;
53411;SDS011;39307;52.870;13.660;2023-08-21T01:47:55;15.07;;;10.75;;
53411;SDS011;39307;52.870;13.660;2023-08-21T01:50:22;17.83;;;12.55;;
53411;SDS011;39307;52.870;13.660;2023-08-21T01:52:48;15.63;;;11.73;;
53411;SDS011;39307;52.870;13.660;2023-08-21T01:55:14;15.95;;;11.95;;
53411;SDS011;39307;52.870;13.660;2023-08-21T01:57:40;18.25;;;11.93;;
53411;SDS011;39307;52.870;13.660;2023-08-21T02:00:07;15.73;;;11.52;;
53411;SDS011;39307;52.870;13.660;2023-08-21T02:02:33;16.45;;;11.80;;
53411;SDS011;39307;52.870;13.660;2023-08-21T02:05:00;21.05;;;13.20;;
53411;SDS011;39307;52.870;13.660;2023-08-21T02:07:26;17.98;;;12.80;;
53411;SDS011;39307;52.870;13.660;2023-08-21T02:09:52;19.42;;;13.27;;
53411;SDS011;39307;52.870;13.660;2023-08-21T02:12:18;17.83;;;12.50;;
53411;SDS011;39307;52.870;13.660;2023-08-21T02:14:44;18.03;;;12.20;;
53411;SDS011;39307;52.870;13.660;2023-08-21T02:17:11;17.40;;;11.70;;
53411;SDS011;39307;52.870;13.660;2023-08-21T02:19:37;17.48;;;12.02;;
53411;SDS011;39307;52.870;13.660;2023-08-21T02:22:03;16.47;;;11.60;;
53411;SDS011;39307;52.870;13.660;2023-08-21T02:24:29;16.20;;;11.30;;
53411;SDS011;39307;52.870;13.660;2023-08-21T02:26:56;13.90;;;10.90;;
53411;SDS011;39307;52.870;13.660;2023-08-21T02:29:22;16.75;;;11.02;;
53411;SDS011;39307;52.870;13.660;2023-08-21T02:31:48;13.82;;;10.75;;
53411;SDS011;39307;52.870;13.660;2023-08-21T02:34:14;15.00;;;11.32;;
53411;SDS011;39307;52.870;13.660;2023-08-21T02:36:41;16.05;;;10.75;;
53411;SDS011;39307;52.870;13.660;2023-08-21T02:39:07;17.40;;;11.10;;
53411;SDS011;39307;52.870;13.660;2023-08-21T02:41:33;15.40;;;11.43;;
53411;SDS011;39307;52.870;13.660;2023-08-21T02:43:59;16.77;;;10.83;;
53411;SDS011;39307;52.870;13.660;2023-08-21T02:46:26;15.45;;;10.57;;
53411;SDS011;39307;52.870;13.660;2023-08-21T02:48:52;15.03;;;10.90;;
53411;SDS011;39307;52.870;13.660;2023-08-21T02:51:18;17.90;;;11.57;;
53411;SDS011;39307;52.870;13.660;2023-08-21T02:53:44;14.53;;;10.57;;
53411;SDS011;39307;52.870;13.660;2023-08-21T02:56:10;16.27;;;11.45;;
53411;SDS011;39307;52.870;13.660;2023-08-21T02:58:37;17.85;;;12.32;;
53411;SDS011;39307;52.870;13.660;2023-08-21T03:01:03;19.60;;;11.73;;
53411;SDS011;39307;52.870;13.660;2023-08-21T03:03:29;16.47;;;11.30;;
53411;SDS011;39307;52.870;13.660;2023-08-21T03:05:57;17.00;;;12.67;;
53411;SDS011;39307;52.870;13.660;2023-08-21T03:08:23;17.98;;;12.48;;
53411;SDS011;39307;52.870;13.660;2023-08-21T03:10:49;18.27;;;12.85;;
53411;SDS011;39307;52.870;13.660;2023-08-21T03:13:15;18.35;;;13.55;;
53411;SDS011;39307;52.870;13.660;2023-08-21T03:15:42;20.53;;;12.90;;
53411;SDS011;39307;52.870;13.660;2023-08-21T03:18:08;16.53;;;11.77;;
53411;SDS011;39307;52.870;13.660;2023-08-21T03:20:34;14.97;;;11.27;;
53411;SDS011;39307;52.870;13.660;2023-08-21T03:23:00;16.45;;;11.10;;
53411;SDS011;39307;52.870;13.660;2023-08-21T03:25:27;14.63;;;10.23;;
53411;SDS011;39307;52.870;13.660;2023-08-21T03:27:53;15.43;;;10.77;;
53411;SDS011;39307;52.870;13.660;2023-08-21T03:30:20;16.98;;;10.90;;
53411;SDS011;39307;52.870;13.660;2023-08-21T03:32:46;14.65;;;10.82;;
53411;SDS011;39307;52.870;13.660;2023-08-21T03:35:12;15.75;;;11.95;;
53411;SDS011;39307;52.870;13.660;2023-08-21T03:37:38;15.30;;;11.57;;
53411;SDS011;39307;52.870;13.660;2023-08-21T03:40:05;15.35;;;11.27;;
53411;SDS011;39307;52.870;13.660;2023-08-21T03:42:31;15.43;;;10.68;;
53411;SDS011;39307;52.870;13.660;2023-08-21T03:44:58;16.20;;;11.23;;
53411;SDS011;39307;52.870;13.660;2023-08-21T03:47:24;16.55;;;11.77;;
53411;SDS011;39307;52.870;13.660;2023-08-21T03:49:50;16.95;;;12.38;;
53411;SDS011;39307;52.870;13.660;2023-08-21T03:52:16;18.67;;;12.60;;
53411;SDS011;39307;52.870;13.660;2023-08-21T03:54:42;16.48;;;12.15;;
53411;SDS011;39307;52.870;13.660;2023-08-21T03:57:09;16.38;;;11.65;;
53411;SDS011;39307;52.870;13.660;2023-08-21T03:59:35;17.98;;;10.82;;
53411;SDS011;39307;52.870;13.660;2023-08-21T04:02:01;17.70;;;11.00;;
53411;SDS011;39307;52.870;13.660;2023-08-21T04:04:28;14.57;;;10.97;;
53411;SDS011;39307;52.870;13.660;2023-08-21T04:06:54;14.80;;;10.60;;
53411;SDS011;39307;52.870;13.660;2023-08-21T04:09:20;15.13;;;11.07;;
53411;SDS011;39307;52.870;13.660;2023-08-21T04:11:46;14.23;;;10.95;;
53411;SDS011;39307;52.870;13.660;2023-08-21T04:14:12;17.55;;;11.25;;
53411;SDS011;39307;52.870;13.660;2023-08-21T04:16:38;15.57;;;11.13;;
53411;SDS011;39307;52.870;13.660;2023-08-21T04:19:05;17.63;;;12.35;;
53411;SDS011;39307;52.870;13.660;2023-08-21T04:21:31;15.73;;;10.82;;
53411;SDS011;39307;52.870;13.660;2023-08-21T04:23:57;15.07;;;10.77;;
53411;SDS011;39307;52.870;13.660;2023-08-21T04:26:24;15.93;;;10.82;;
53411;SDS011;39307;52.870;13.660;2023-08-21T04:28:50;16.73;;;11.90;;
53411;SDS011;39307;52.870;13.660;2023-08-21T04:31:17;16.33;;;11.25;;
53411;SDS011;39307;52.870;13.660;2023-08-21T04:33:44;16.63;;;11.55;;
53411;SDS011;39307;52.870;13.660;2023-08-21T04:36:15;16.02;;;11.00;;
53411;SDS011;39307;52.870;13.660;2023-08-21T04:38:42;14.50;;;10.40;;
53411;SDS011;39307;52.870;13.660;2023-08-21T04:41:08;15.70;;;11.00;;
53411;SDS011;39307;52.870;13.660;2023-08-21T04:43:35;14.35;;;10.82;;
53411;SDS011;39307;52.870;13.660;2023-08-21T04:46:02;15.90;;;11.63;;
53411;SDS011;39307;52.870;13.660;2023-08-21T04:48:29;16.83;;;11.90;;
53411;SDS011;39307;52.870;13.660;2023-08-21T04:50:55;16.27;;;11.07;;
53411;SDS011;39307;52.870;13.660;2023-08-21T04:53:22;16.00;;;11.00;;
53411;SDS011;39307;52.870;13.660;2023-08-21T04:55:48;14.43;;;10.60;;
53411;SDS011;39307;52.870;13.660;2023-08-21T04:58:14;13.33;;;9.87;;
53411;SDS011;39307;52.870;13.660;2023-08-21T05:00:40;14.50;;;10.60;;
53411;SDS011;39307;52.870;13.660;2023-08-21T05:03:06;14.97;;;10.03;;
53411;SDS011;39307;52.870;13.660;2023-08-21T05:05:33;19.50;;;11.00;;
53411;SDS011;39307;52.870;13.660;2023-08-21T05:08:00;19.38;;;13.52;;
53411;SDS011;39307;52.870;13.660;2023-08-21T05:10:26;14.40;;;11.10;;
53411;SDS011;39307;52.870;13.660;2023-08-21T05:12:52;18.23;;;11.93;;
53411;SDS011;39307;52.870;13.660;2023-08-21T05:15:18;17.85;;;11.15;;
53411;SDS011;39307;52.870;13.660;2023-08-21T05:17:45;13.20;;;10.00;;
53411;SDS011;39307;52.870;13.660;2023-08-21T05:20:11;14.55;;;10.23;;
53411;SDS011;39307;52.870;13.660;2023-08-21T05:22:37;14.60;;;10.68;;
53411;SDS011;39307;52.870;13.660;2023-08-21T05:25:04;15.52;;;10.85;;
53411;SDS011;39307;52.870;13.660;2023-08-21T05:27:30;15.75;;;11.10;;
53411;SDS011;39307;52.870;13.660;2023-08-21T05:29:56;15.45;;;10.65;;
53411;SDS011;39307;52.870;13.660;2023-08-21T05:32:23;14.70;;;10.80;;
53411;SDS011;39307;52.870;13.660;2023-08-21T05:34:49;14.18;;;10.73;;
53411;SDS011;39307;52.870;13.660;2023-08-21T05:37:15;15.73;;;11.40;;
53411;SDS011;39307;52.870;13.660;2023-08-21T05:39:41;15.18;;;10.25;;
53411;SDS011;39307;52.870;13.660;2023-08-21T05:42:07;15.15;;;10.60;;
53411;SDS011;39307;52.870;13.660;2023-08-21T05:44:34;14.30;;;10.63;;
53411;SDS011;39307;52.870;13.660;2023-08-21T05:47:00;16.00;;;10.70;;
53411;SDS011;39307;52.870;13.660;2023-08-21T05:49:26;15.93;;;11.03;;
53411;SDS011;39307;52.870;13.660;2023-08-21T05:51:52;17.37;;;11.57;;
53411;SDS011;39307;52.870;13.660;2023-08-21T05:54:19;14.17;;;11.00;;
53411;SDS011;39307;52.870;13.660;2023-08-21T05:56:45;16.40;;;10.90;;
53411;SDS011;39307;52.870;13.660;2023-08-21T05:59:11;15.23;;;11.37;;
53411;SDS011;39307;52.870;13.660;2023-08-21T06:01:37;14.47;;;11.37;;
53411;SDS011;39307;52.870;13.660;2023-08-21T06:04:04;15.03;;;10.87;;
53411;SDS011;39307;52.870;13.660;2023-08-21T06:06:30;13.87;;;9.80;;
53411;SDS011;39307;52.870;13.660;2023-08-21T06:08:56;15.07;;;10.65;;
53411;SDS011;39307;52.870;13.660;2023-08-21T06:11:22;14.23;;;10.95;;
53411;SDS011;39307;52.870;13.660;2023-08-21T06:13:48;15.65;;;11.00;;
53411;SDS011;39307;52.870;13.660;2023-08-21T06:16:15;16.08;;;11.30;;
53411;SDS011;39307;52.870;13.660;2023-08-21T06:18:41;16.58;;;11.02;;
53411;SDS011;39307;52.870;13.660;2023-08-21T06:21:07;14.30;;;10.50;;
53411;SDS011;39307;52.870;13.660;2023-08-21T06:23:33;13.82;;;10.27;;
53411;SDS011;39307;52.870;13.660;2023-08-21T06:26:00;13.80;;;9.93;;
53411;SDS011;39307;52.870;13.660;2023-08-21T06:28:26;13.70;;;9.27;;
53411;SDS011;39307;52.870;13.660;2023-08-21T06:30:56;13.68;;;9.20;;
53411;SDS011;39307;52.870;13.660;2023-08-21T06:33:22;12.95;;;9.30;;
53411;SDS011;39307;52.870;13.660;2023-08-21T06:35:49;14.27;;;9.43;;
53411;SDS011;39307;52.870;13.660;2023-08-21T06:38:15;15.35;;;10.45;;
53411;SDS011;39307;52.870;13.660;2023-08-21T06:40:41;16.27;;;10.10;;
53411;SDS011;39307;52.870;13.660;2023-08-21T06:43:10;12.77;;;9.50;;
53411;SDS011;39307;52.870;13.660;2023-08-21T06:45:36;12.73;;;9.27;;
53411;SDS011;39307;52.870;13.660;2023-08-21T06:48:02;16.13;;;9.90;;
53411;SDS011;39307;52.870;13.660;2023-08-21T06:50:29;14.95;;;10.60;;
53411;SDS011;39307;52.870;13.660;2023-08-21T06:52:56;14.93;;;10.23;;
53411;SDS011;39307;52.870;13.660;2023-08-21T06:55:22;16.10;;;10.30;;
53411;SDS011;39307;52.870;13.660;2023-08-21T06:57:48;13.82;;;9.85;;
53411;SDS011;39307;52.870;13.660;2023-08-21T07:00:15;13.07;;;9.77;;
53411;SDS011;39307;52.870;13.660;2023-08-21T07:02:41;13.77;;;10.02;;
53411;SDS011;39307;52.870;13.660;2023-08-21T07:05:07;14.40;;;10.02;;
53411;SDS011;39307;52.870;13.660;2023-08-21T07:07:33;14.25;;;9.55;;
53411;SDS011;39307;52.870;13.660;2023-08-21T07:10:00;13.95;;;10.32;;
53411;SDS011;39307;52.870;13.660;2023-08-21T07:12:26;14.40;;;9.82;;
53411;SDS011;39307;52.870;13.660;2023-08-21T07:14:52;14.80;;;9.88;;
53411;SDS011;39307;52.870;13.660;2023-08-21T07:17:19;12.73;;;9.80;;
53411;SDS011;39307;52.870;13.660;2023-08-21T07:19:45;15.43;;;9.77;;
53411;SDS011;39307;52.870;13.660;2023-08-21T07:22:12;13.33;;;9.50;;
53411;SDS011;39307;52.870;13.660;2023-08-21T07:24:38;12.80;;;9.20;;
53411;SDS011;39307;52.870;13.660;2023-08-21T07:27:04;13.32;;;9.45;;
53411;SDS011;39307;52.870;13.660;2023-08-21T07:29:30;14.93;;;9.18;;
53411;SDS011;39307;52.870;13.660;2023-08-21T07:31:57;11.00;;;8.23;;
53411;SDS011;39307;52.870;13.660;2023-08-21T07:34:23;13.05;;;8.27;;
53411;SDS011;39307;52.870;13.660;2023-08-21T07:36:49;13.10;;;8.23;;
53411;SDS011;39307;52.870;13.660;2023-08-21T07:39:16;11.52;;;8.35;;
53411;SDS011;39307;52.870;13.660;2023-08-21T07:41:42;11.05;;;7.93;;
53411;SDS011;39307;52.870;13.660;2023-08-21T07:44:09;11.63;;;8.25;;
53411;SDS011;39307;52.870;13.660;2023-08-21T07:46:35;13.83;;;8.40;;
53411;SDS011;39307;52.870;13.660;2023-08-21T07:49:01;11.27;;;7.88;;
53411;SDS011;39307;52.870;13.660;2023-08-21T07:51:28;12.35;;;8.18;;
53411;SDS011;39307;52.870;13.660;2023-08-21T07:53:55;11.50;;;7.77;;
53411;SDS011;39307;52.870;13.660;2023-08-21T07:56:21;12.17;;;7.97;;
53411;SDS011;39307;52.870;13.660;2023-08-21T07:58:48;12.65;;;7.10;;
53411;SDS011;39307;52.870;13.660;2023-08-21T08:01:14;12.82;;;7.32;;
53411;SDS011;39307;52.870;13.660;2023-08-21T08:03:40;11.18;;;6.82;;
53411;SDS011;39307;52.870;13.660;2023-08-21T08:06:06;12.50;;;5.95;;
53411;SDS011;39307;52.870;13.660;2023-08-21T08:08:33;10.45;;;5.75;;
53411;SDS011;39307;52.870;13.660;2023-08-21T08:11:02;9.80;;;5.07;;
53411;SDS011;39307;52.870;13.660;2023-08-21T08:13:29;8.73;;;4.93;;
53411;SDS011;39307;52.870;13.660;2023-08-21T08:15:55;9.35;;;5.35;;
53411;SDS011;39307;52.870;13.660;2023-08-21T08:18:22;8.50;;;4.70;;
53411;SDS011;39307;52.870;13.660;2023-08-21T08:20:48;7.45;;;4.45;;
53411;SDS011;39307;52.870;13.660;2023-08-21T08:23:14;8.48;;;4.38;;
53411;SDS011;39307;52.870;13.660;2023-08-21T08:25:40;9.20;;;4.70;;
53411;SDS011;39307;52.870;13.660;2023-08-21T08:28:06;8.75;;;4.40;;
53411;SDS011;39307;52.870;13.660;2023-08-21T08:30:33;7.05;;;4.00;;
53411;SDS011;39307;52.870;13.660;2023-08-21T08:33:00;9.20;;;4.15;;
53411;SDS011;39307;52.870;13.660;2023-08-21T08:35:26;13.35;;;4.32;;
53411;SDS011;39307;52.870;13.660;2023-08-21T08:37:52;8.85;;;3.60;;
53411;SDS011;39307;52.870;13.660;2023-08-21T08:40:19;8.15;;;3.42;;
53411;SDS011;39307;52.870;13.660;2023-08-21T08:42:45;7.85;;;3.28;;
53411;SDS011;39307;52.870;13.660;2023-08-21T08:45:13;5.85;;;3.40;;
53411;SDS011;39307;52.870;13.660;2023-08-21T08:47:40;7.10;;;3.17;;
53411;SDS011;39307;52.870;13.660;2023-08-21T08:50:07;6.00;;;2.67;;
53411;SDS011;39307;52.870;13.660;2023-08-21T08:52:35;5.40;;;2.03;;
53411;SDS011;39307;52.870;13.660;2023-08-21T08:55:04;6.45;;;2.30;;
53411;SDS011;39307;52.870;13.660;2023-08-21T08:57:31;7.10;;;2.15;;
53411;SDS011;39307;52.870;13.660;2023-08-21T08:59:57;10.00;;;2.40;;
53411;SDS011;39307;52.870;13.660;2023-08-21T09:02:24;7.75;;;1.73;;
53411;SDS011;39307;52.870;13.660;2023-08-21T09:04:51;5.67;;;1.77;;
53411;SDS011;39307;52.870;13.660;2023-08-21T09:07:17;4.80;;;2.07;;
53411;SDS011;39307;52.870;13.660;2023-08-21T09:09:48;6.23;;;1.90;;
53411;SDS011;39307;52.870;13.660;2023-08-21T09:12:14;4.72;;;2.08;;
53411;SDS011;39307;52.870;13.660;2023-08-21T09:14:43;5.78;;;2.10;;
53411;SDS011;39307;52.870;13.660;2023-08-21T09:17:09;5.00;;;2.20;;
53411;SDS011;39307;52.870;13.660;2023-08-21T09:19:36;6.95;;;2.10;;
53411;SDS011;39307;52.870;13.660;2023-08-21T09:24:39;6.88;;;2.35;;
53411;SDS011;39307;52.870;13.660;2023-08-21T09:27:13;9.07;;;2.38;;
53411;SDS011;39307;52.870;13.660;2023-08-21T09:29:41;6.22;;;1.92;;
53411;SDS011;39307;52.870;13.660;2023-08-21T09:32:07;4.38;;;1.90;;
53411;SDS011;39307;52.870;13.660;2023-08-21T09:34:34;5.07;;;2.03;;
53411;SDS011;39307;52.870;13.660;2023-08-21T09:37:01;5.03;;;1.90;;
53411;SDS011;39307;52.870;13.660;2023-08-21T09:39:35;5.18;;;2.00;;
53411;SDS011;39307;52.870;13.660;2023-08-21T09:42:05;5.75;;;2.00;;
53411;SDS011;39307;52.870;13.660;2023-08-21T09:44:39;6.03;;;1.95;;
53411;SDS011;39307;52.870;13.660;2023-08-21T09:47:07;12.57;;;2.20;;
53411;SDS011;39307;52.870;13.660;2023-08-21T09:49:35;6.03;;;1.75;;
53411;SDS011;39307;52.870;13.660;2023-08-21T09:52:02;5.45;;;1.60;;
53411;SDS011;39307;52.870;13.660;2023-08-21T09:54:30;4.57;;;1.48;;
53411;SDS011;39307;52.870;13.660;2023-08-21T09:57:02;4.38;;;1.58;;
53411;SDS011;39307;52.870;13.660;2023-08-21T09:59:29;4.70;;;1.90;;
53411;SDS011;39307;52.870;13.660;2023-08-21T10:01:57;4.25;;;1.50;;
53411;SDS011;39307;52.870;13.660;2023-08-21T10:04:24;4.60;;;1.70;;
53411;SDS011;39307;52.870;13.660;2023-08-21T10:06:53;8.83;;;2.10;;
53411;SDS011;39307;52.870;13.660;2023-08-21T10:09:21;3.72;;;1.60;;
53411;SDS011;39307;52.870;13.660;2023-08-21T10:11:48;3.10;;;1.27;;
53411;SDS011;39307;52.870;13.660;2023-08-21T10:14:15;4.80;;;1.20;;
53411;SDS011;39307;52.870;13.660;2023-08-21T10:16:42;4.55;;;1.40;;
53411;SDS011;39307;52.870;13.660;2023-08-21T10:19:13;4.53;;;1.23;;
53411;SDS011;39307;52.870;13.660;2023-08-21T10:21:44;3.95;;;1.33;;
53411;SDS011;39307;52.870;13.660;2023-08-21T10:24:14;4.68;;;1.20;;
53411;SDS011;39307;52.870;13.660;2023-08-21T10:26:52;3.90;;;1.30;;
53411;SDS011;39307;52.870;13.660;2023-08-21T10:29:18;3.33;;;1.08;;
53411;SDS011;39307;52.870;13.660;2023-08-21T10:31:45;4.55;;;1.40;;
53411;SDS011;39307;52.870;13.660;2023-08-21T10:34:12;5.45;;;1.25;;
53411;SDS011;39307;52.870;13.660;2023-08-21T10:39:14;6.00;;;1.08;;
53411;SDS011;39307;52.870;13.660;2023-08-21T10:41:58;3.40;;;1.00;;
53411;SDS011;39307;52.870;13.660;2023-08-21T10:44:37;4.43;;;1.05;;
53411;SDS011;39307;52.870;13.660;2023-08-21T10:47:30;4.82;;;1.50;;
53411;SDS011;39307;52.870;13.660;2023-08-21T10:49:58;4.10;;;1.20;;
53411;SDS011;39307;52.870;13.660;2023-08-21T10:52:27;3.63;;;1.20;;
53411;SDS011;39307;52.870;13.660;2023-08-21T10:54:56;5.20;;;1.13;;
53411;SDS011;39307;52.870;13.660;2023-08-21T10:57:27;5.47;;;1.30;;
53411;SDS011;39307;52.870;13.660;2023-08-21T10:59:55;10.27;;;1.55;;
53411;SDS011;39307;52.870;13.660;2023-08-21T11:02:26;3.30;;;1.30;;
53411;SDS011;39307;52.870;13.660;2023-08-21T11:04:54;5.23;;;1.23;;
53411;SDS011;39307;52.870;13.660;2023-08-21T11:07:21;5.10;;;1.30;;
53411;SDS011;39307;52.870;13.660;2023-08-21T11:09:48;5.07;;;1.58;;
53411;SDS011;39307;52.870;13.660;2023-08-21T11:12:19;5.05;;;1.45;;
53411;SDS011;39307;52.870;13.660;2023-08-21T11:14:47;5.55;;;1.50;;
53411;SDS011;39307;52.870;13.660;2023-08-21T11:17:14;3.30;;;1.30;;
53411;SDS011;39307;52.870;13.660;2023-08-21T11:19:41;6.13;;;1.20;;
53411;SDS011;39307;52.870;13.660;2023-08-21T11:22:08;4.23;;;1.50;;
53411;SDS011;39307;52.870;13.660;2023-08-21T11:24:39;4.65;;;1.40;;
53411;SDS011;39307;52.870;13.660;2023-08-21T11:27:08;4.53;;;1.30;;
53411;SDS011;39307;52.870;13.660;2023-08-21T11:29:39;4.30;;;1.30;;
53411;SDS011;39307;52.870;13.660;2023-08-21T11:32:12;8.45;;;1.58;;
53411;SDS011;39307;52.870;13.660;2023-08-21T11:34:41;8.02;;;1.60;;
53411;SDS011;39307;52.870;13.660;2023-08-21T11:37:08;5.93;;;1.35;;
53411;SDS011;39307;52.870;13.660;2023-08-21T11:39:38;5.72;;;1.10;;
53411;SDS011;39307;52.870;13.660;2023-08-21T11:42:11;6.03;;;1.30;;
53411;SDS011;39307;52.870;13.660;2023-08-21T11:44:41;3.72;;;1.02;;
53411;SDS011;39307;52.870;13.660;2023-08-21T11:47:13;4.97;;;1.05;;
53411;SDS011;39307;52.870;13.660;2023-08-21T11:49:40;4.03;;;1.05;;
53411;SDS011;39307;52.870;13.660;2023-08-21T11:52:07;4.25;;;1.00;;
53411;SDS011;39307;52.870;13.660;2023-08-21T11:54:35;2.85;;;0.80;;
53411;SDS011;39307;52.870;13.660;2023-08-21T11:57:11;2.67;;;0.98;;
53411;SDS011;39307;52.870;13.660;2023-08-21T11:59:40;3.63;;;0.90;;
53411;SDS011;39307;52.870;13.660;2023-08-21T12:02:10;2.15;;;0.63;;
53411;SDS011;39307;52.870;13.660;2023-08-21T12:04:43;9.38;;;1.45;;
53411;SDS011;39307;52.870;13.660;2023-08-21T12:07:10;4.00;;;1.10;;
53411;SDS011;39307;52.870;13.660;2023-08-21T12:09:37;2.90;;;0.80;;
53411;SDS011;39307;52.870;13.660;2023-08-21T12:12:04;4.28;;;0.90;;
53411;SDS011;39307;52.870;13.660;2023-08-21T12:14:30;4.40;;;1.00;;
53411;SDS011;39307;52.870;13.660;2023-08-21T12:16:57;5.15;;;0.93;;
53411;SDS011;39307;52.870;13.660;2023-08-21T12:19:24;12.02;;;1.60;;
53411;SDS011;39307;52.870;13.660;2023-08-21T12:21:50;2.83;;;1.10;;
53411;SDS011;39307;52.870;13.660;2023-08-21T12:24:17;3.38;;;0.93;;
53411;SDS011;39307;52.870;13.660;2023-08-21T12:26:43;6.00;;;1.10;;
53411;SDS011;39307;52.870;13.660;2023-08-21T12:29:09;4.90;;;1.15;;
53411;SDS011;39307;52.870;13.660;2023-08-21T12:31:36;5.90;;;1.40;;
53411;SDS011;39307;52.870;13.660;2023-08-21T12:34:02;3.15;;;0.90;;
53411;SDS011;39307;52.870;13.660;2023-08-21T12:36:29;3.05;;;0.98;;
53411;SDS011;39307;52.870;13.660;2023-08-21T12:38:56;4.70;;;1.10;;
53411;SDS011;39307;52.870;13.660;2023-08-21T12:41:23;3.60;;;1.00;;
53411;SDS011;39307;52.870;13.660;2023-08-21T12:43:49;4.10;;;0.90;;
53411;SDS011;39307;52.870;13.660;2023-08-21T12:46:16;7.65;;;1.58;;
53411;SDS011;39307;52.870;13.660;2023-08-21T12:48:43;3.72;;;1.00;;
53411;SDS011;39307;52.870;13.660;2023-08-21T12:51:09;3.85;;;1.17;;
53411;SDS011;39307;52.870;13.660;2023-08-21T12:53:36;3.50;;;0.90;;
53411;SDS011;39307;52.870;13.660;2023-08-21T12:56:02;4.03;;;1.05;;
53411;SDS011;39307;52.870;13.660;2023-08-21T12:58:29;4.05;;;0.82;;
53411;SDS011;39307;52.870;13.660;2023-08-21T13:00:55;3.97;;;1.10;;
53411;SDS011;39307;52.870;13.660;2023-08-21T13:03:21;5.18;;;0.90;;
53411;SDS011;39307;52.870;13.660;2023-08-21T13:05:48;4.78;;;0.93;;
53411;SDS011;39307;52.870;13.660;2023-08-21T13:08:14;5.18;;;1.08;;
53411;SDS011;39307;52.870;13.660;2023-08-21T13:10:41;3.85;;;0.88;;
53411;SDS011;39307;52.870;13.660;2023-08-21T13:13:08;6.10;;;1.00;;
53411;SDS011;39307;52.870;13.660;2023-08-21T13:15:34;5.93;;;0.90;;
53411;SDS011;39307;52.870;13.660;2023-08-21T13:18:01;5.95;;;1.05;;
53411;SDS011;39307;52.870;13.660;2023-08-21T13:20:28;5.25;;;1.13;;
53411;SDS011;39307;52.870;13.660;2023-08-21T13:22:55;3.40;;;0.80;;
53411;SDS011;39307;52.870;13.660;2023-08-21T13:25:22;9.80;;;1.27;;
53411;SDS011;39307;52.870;13.660;2023-08-21T13:27:49;8.77;;;1.40;;
53411;SDS011;39307;52.870;13.660;2023-08-21T13:30:16;3.85;;;1.00;;
53411;SDS011;39307;52.870;13.660;2023-08-21T13:32:43;4.22;;;1.00;;
53411;SDS011;39307;52.870;13.660;2023-08-21T13:35:09;6.82;;;1.08;;
53411;SDS011;39307;52.870;13.660;2023-08-21T13:37:36;4.40;;;1.17;;
53411;SDS011;39307;52.870;13.660;2023-08-21T13:40:02;4.30;;;1.00;;
53411;SDS011;39307;52.870;13.660;2023-08-21T13:42:29;3.65;;;0.98;;
53411;SDS011;39307;52.870;13.660;2023-08-21T13:44:55;4.17;;;0.83;;
53411;SDS011;39307;52.870;13.660;2023-08-21T13:47:22;4.43;;;1.05;;
53411;SDS011;39307;52.870;13.660;2023-08-21T13:49:48;4.18;;;1.08;;
53411;SDS011;39307;52.870;13.660;2023-08-21T13:52:14;4.68;;;1.00;;
53411;SDS011;39307;52.870;13.660;2023-08-21T13:54:40;4.40;;;1.10;;
53411;SDS011;39307;52.870;13.660;2023-08-21T13:57:07;3.60;;;0.90;;
53411;SDS011;39307;52.870;13.660;2023-08-21T13:59:33;3.08;;;0.80;;
53411;SDS011;39307;52.870;13.660;2023-08-21T14:01:59;4.80;;;1.05;;
53411;SDS011;39307;52.870;13.660;2023-08-21T14:04:26;4.40;;;1.10;;
53411;SDS011;39307;52.870;13.660;2023-08-21T14:06:52;4.00;;;1.17;;
53411;SDS011;39307;52.870;13.660;2023-08-21T14:09:18;3.28;;;1.10;;
53411;SDS011;39307;52.870;13.660;2023-08-21T14:11:44;3.00;;;0.80;;
53411;SDS011;39307;52.870;13.660;2023-08-21T14:14:11;4.35;;;0.90;;
53411;SDS011;39307;52.870;13.660;2023-08-21T14:16:37;2.93;;;0.80;;
53411;SDS011;39307;52.870;13.660;2023-08-21T14:19:03;3.33;;;0.90;;
53411;SDS011;39307;52.870;13.660;2023-08-21T14:21:29;6.63;;;0.93;;
53411;SDS011;39307;52.870;13.660;2023-08-21T14:23:56;5.60;;;1.13;;
53411;SDS011;39307;52.870;13.660;2023-08-21T14:26:22;3.73;;;0.80;;